Time;durP1;ratioP1;P1;durP2;ratioP2;P2;SDS_P1;SDS_P2;PMS_P1;PMS_P2;Temp;Humidity;BMP_temperature;BMP_pressure;BME280_temperature;BME280_humidity;BME280_pressure;Samples;Min_cycle;Max_cycle;Signal;HPM_P1;HPM_P2
2022/04/29 00:02:09;;;;;;;0.00;0.00;;;7.50;99.90;;;;;;5040822;28;20059;-60
2022/04/29 00:04:36;;;;;;;0.00;0.00;;;7.50;99.90;;;;;;5040703;28;20036;-61
2022/04/29 00:07:02;;;;;;;0.00;0.00;;;7.40;99.90;;;;;;5041531;28;20037;-60
2022/04/29 00:09:28;;;;;;;0.00;0.00;;;7.40;99.90;;;;;;5040841;28;20108;-60
2022/04/29 00:11:54;;;;;;;0.00;0.00;;;7.40;99.90;;;;;;5040072;28;20095;-61
2022/04/29 00:14:21;;;;;;;0.00;0.00;;;7.40;99.90;;;;;;5039916;28;20068;-61
2022/04/29 00:16:47;;;;;;;0.00;0.00;;;7.40;99.90;;;;;;5038242;28;20083;-60
2022/04/29 00:19:13;;;;;;;0.00;0.00;;;7.40;99.90;;;;;;5040954;28;20040;-60
2022/04/29 00:21:41;;;;;;;0.00;0.00;;;7.60;99.90;;;;;;5041343;28;20460;-60
2022/04/29 00:24:09;;;;;;;0.00;0.00;;;7.30;99.90;;;;;;5040336;28;20393;-61
2022/04/29 00:26:36;;;;;;;0.00;0.00;;;7.30;99.90;;;;;;5041304;28;20745;-62
2022/04/29 00:29:02;;;;;;;0.00;0.00;;;7.30;99.90;;;;;;5041151;28;20455;-61
2022/04/29 00:31:28;;;;;;;0.00;0.00;;;7.30;99.90;;;;;;5037714;28;20032;-60
2022/04/29 00:33:54;;;;;;;0.00;0.00;;;7.30;99.90;;;;;;5039512;28;20049;-61
2022/04/29 00:36:20;;;;;;;0.00;0.00;;;7.90;99.90;;;;;;5040186;28;20045;-61
2022/04/29 00:38:45;;;;;;;0.00;0.00;;;7.40;99.90;;;;;;5040456;28;20106;-61
2022/04/29 00:41:16;;;;;;;0.00;0.00;;;7.30;99.90;;;;;;5040345;28;20087;-60
2022/04/29 00:43:42;;;;;;;0.00;0.00;;;7.30;99.90;;;;;;5040570;28;20052;-61
2022/04/29 00:46:08;;;;;;;0.00;0.00;;;7.30;99.90;;;;;;5046511;28;20044;-60
2022/04/29 00:48:34;;;;;;;0.00;0.00;;;7.30;99.90;;;;;;5044514;28;20045;-63
2022/04/29 00:50:59;;;;;;;0.00;0.00;;;7.50;99.90;;;;;;5040584;28;20071;-60
2022/04/29 00:53:27;;;;;;;0.00;0.00;;;7.40;99.90;;;;;;5039793;28;20061;-60
2022/04/29 00:55:55;;;;;;;0.00;0.00;;;7.40;99.90;;;;;;5040286;28;20106;-61
2022/04/29 00:58:25;;;;;;;0.00;0.00;;;7.40;99.90;;;;;;5039936;28;20094;-60
2022/04/29 01:00:52;;;;;;;0.00;0.00;;;7.40;99.90;;;;;;5040394;28;20414;-60
2022/04/29 01:03:19;;;;;;;0.00;0.00;;;7.30;99.90;;;;;;5039114;28;20108;-60
2022/04/29 01:05:48;;;;;;;0.00;0.00;;;7.40;99.90;;;;;;5039864;28;20404;-61
2022/04/29 01:08:13;;;;;;;0.00;0.00;;;7.40;99.90;;;;;;5043359;22;20045;-60
2022/04/29 01:10:39;;;;;;;0.00;0.00;;;7.30;99.90;;;;;;5021852;28;20068;-62
2022/04/29 01:13:05;;;;;;;0.00;0.00;;;7.40;99.90;;;;;;5019756;28;20084;-62
2022/04/29 01:15:31;;;;;;;0.00;0.00;;;7.30;99.90;;;;;;5018737;28;20425;-62
2022/04/29 01:17:59;;;;;;;0.00;0.00;;;7.20;99.90;;;;;;5018920;28;20046;-63
2022/04/29 01:20:28;;;;;;;0.00;0.00;;;7.20;99.90;;;;;;5020021;28;20052;-63
2022/04/29 01:22:55;;;;;;;0.00;0.00;;;7.20;99.90;;;;;;5019789;28;20052;-62
2022/04/29 01:25:21;;;;;;;0.00;0.00;;;7.20;99.90;;;;;;5020255;28;20643;-61
2022/04/29 01:27:46;;;;;;;0.00;0.00;;;7.20;99.90;;;;;;5019933;28;20458;-62
2022/04/29 01:30:16;;;;;;;0.00;0.00;;;7.20;99.90;;;;;;5019419;28;20128;-61
2022/04/29 01:32:42;;;;;;;0.00;0.00;;;7.40;99.90;;;;;;5019825;28;20060;-61
2022/04/29 01:35:10;;;;;;;0.00;0.00;;;7.20;99.90;;;;;;5020772;28;20392;-61
2022/04/29 01:37:36;;;;;;;0.00;0.00;;;7.10;99.90;;;;;;5020329;28;20176;-61
2022/04/29 01:40:03;;;;;;;0.00;0.00;;;7.10;99.90;;;;;;5019635;28;20049;-61
2022/04/29 01:42:29;;;;;;;0.00;0.00;;;7.10;99.90;;;;;;5019865;28;20048;-61
2022/04/29 01:44:54;;;;;;;0.00;0.00;;;7.00;99.90;;;;;;5018379;28;20041;-61
2022/04/29 01:47:20;;;;;;;0.00;0.00;;;7.10;99.90;;;;;;5008951;28;20042;-61
2022/04/29 01:49:46;;;;;;;0.00;0.00;;;7.10;99.90;;;;;;5000577;28;20528;-61
2022/04/29 01:52:11;;;;;;;0.00;0.00;;;7.00;99.90;;;;;;5015063;28;20074;-60
2022/04/29 01:54:37;;;;;;;0.00;0.00;;;7.00;99.90;;;;;;5000496;28;20129;-62
2022/04/29 01:57:06;;;;;;;0.00;0.00;;;7.10;99.90;;;;;;4999932;28;20141;-61
2022/04/29 01:59:33;;;;;;;0.00;0.00;;;7.00;99.90;;;;;;5000004;28;20046;-61
2022/04/29 02:01:58;;;;;;;0.00;0.00;;;7.00;99.90;;;;;;4999656;28;20116;-61
2022/04/29 02:04:25;;;;;;;0.00;0.00;;;7.30;99.90;;;;;;4997962;28;20480;-62
2022/04/29 02:06:50;;;;;;;0.00;0.00;;;6.50;99.90;;;;;;4999937;28;20053;-61
2022/04/29 02:09:16;;;;;;;0.00;0.00;;;6.90;99.90;;;;;;5014895;28;20060;-60
2022/04/29 02:12:04;;;;;;;0.00;0.00;;;7.00;99.90;;;;;;4998965;28;20046;-60
2022/04/29 02:14:30;;;;;;;0.00;0.00;;;7.00;99.90;;;;;;4998613;28;20227;-62
2022/04/29 02:16:57;;;;;;;0.00;0.00;;;7.00;99.90;;;;;;4999550;28;20101;-61
2022/04/29 02:19:24;;;;;;;0.00;0.00;;;7.00;99.90;;;;;;4999443;28;20042;-61
2022/04/29 02:21:50;;;;;;;0.00;0.00;;;7.00;99.90;;;;;;5015438;28;20966;-61
2022/04/29 02:24:16;;;;;;;0.00;0.00;;;7.00;99.90;;;;;;4999705;28;20041;-61
2022/04/29 02:26:41;;;;;;;0.00;0.00;;;7.00;99.90;;;;;;5000238;28;20073;-61
2022/04/29 02:29:07;;;;;;;0.00;0.00;;;7.00;99.90;;;;;;4999971;28;20054;-61
2022/04/29 02:31:34;;;;;;;0.00;0.00;;;7.00;99.90;;;;;;4999157;28;20416;-61
2022/04/29 02:33:59;;;;;;;0.00;0.00;;;7.00;99.90;;;;;;4999743;28;20433;-61
2022/04/29 02:36:25;;;;;;;0.00;0.00;;;7.00;99.90;;;;;;4999224;28;20046;-61
2022/04/29 02:38:51;;;;;;;0.00;0.00;;;7.60;99.90;;;;;;4999332;28;20536;-61
2022/04/29 02:41:17;;;;;;;0.00;0.00;;;7.00;99.90;;;;;;5001937;28;20041;-61
2022/04/29 02:43:43;;;;;;;0.00;0.00;;;6.90;99.90;;;;;;5003954;28;20134;-61
2022/04/29 02:46:09;;;;;;;0.00;0.00;;;6.90;99.90;;;;;;5009467;28;20045;-61
2022/04/29 02:48:35;;;;;;;0.00;0.00;;;7.00;99.90;;;;;;5007731;28;20073;-62
2022/04/29 02:51:02;;;;;;;0.00;0.00;;;7.00;99.90;;;;;;5003421;28;20100;-62
2022/04/29 02:53:29;;;;;;;0.00;0.00;;;7.00;99.90;;;;;;5001848;28;20049;-61
2022/04/29 02:55:54;;;;;;;0.00;0.00;;;6.90;99.90;;;;;;5003013;28;20600;-61
2022/04/29 02:58:20;;;;;;;0.00;0.00;;;6.90;99.90;;;;;;5002534;28;20049;-60
2022/04/29 03:00:45;;;;;;;0.00;0.00;;;6.90;99.90;;;;;;5002696;28;20042;-60
2022/04/29 03:03:11;;;;;;;0.00;0.00;;;6.90;99.90;;;;;;5003461;28;20041;-61
2022/04/29 03:05:38;;;;;;;0.00;0.00;;;6.90;99.90;;;;;;5017761;28;20440;-62
2022/04/29 03:08:04;;;;;;;0.00;0.00;;;6.90;99.90;;;;;;5003019;28;20119;-61
2022/04/29 03:10:30;;;;;;;0.00;0.00;;;6.90;99.90;;;;;;5001167;28;20050;-61
2022/04/29 03:12:55;;;;;;;0.00;0.00;;;6.90;99.90;;;;;;5001351;28;20500;-62
2022/04/29 03:15:25;;;;;;;0.00;0.00;;;6.90;99.90;;;;;;5002467;28;20046;-62
2022/04/29 03:20:37;;;;;;;;;;;6.90;99.90;;;;;;5002679;28;20065;-61
2022/04/29 03:23:03;;;;;;;0.00;0.00;;;7.40;99.90;;;;;;5003097;28;19929;-60
2022/04/29 03:25:29;;;;;;;0.00;0.00;;;7.00;99.90;;;;;;5002577;28;20092;-61
2022/04/29 03:27:54;;;;;;;0.00;0.00;;;7.00;99.90;;;;;;5002637;28;20045;-61
2022/04/29 03:30:20;;;;;;;0.00;0.00;;;7.00;99.90;;;;;;5002195;28;20038;-62
2022/04/29 03:33:00;;;;;;;0.00;0.00;;;7.20;99.90;;;;;;5001982;28;20493;-61
2022/04/29 03:35:26;;;;;;;0.00;0.00;;;7.10;99.90;;;;;;5001334;28;20050;-61
2022/04/29 03:37:53;;;;;;;0.00;0.00;;;7.10;99.90;;;;;;5002435;28;20042;-61
2022/04/29 03:40:23;;;;;;;0.00;0.00;;;7.10;99.90;;;;;;5002169;28;20096;-61
2022/04/29 03:42:53;;;;;;;0.00;0.00;;;7.10;99.90;;;;;;5001219;28;20048;-61
2022/04/29 03:45:23;;;;;;;0.00;0.00;;;7.00;99.90;;;;;;5004135;28;20046;-60
2022/04/29 03:47:49;;;;;;;0.00;0.00;;;7.00;99.90;;;;;;5010269;28;20053;-62
2022/04/29 03:50:15;;;;;;;0.00;0.00;;;7.00;99.90;;;;;;5000969;28;20405;-61
2022/04/29 03:52:49;;;;;;;0.00;0.00;;;7.00;99.90;;;;;;5001710;28;20046;-61
2022/04/29 03:55:17;;;;;;;0.03;0.03;;;7.00;99.90;;;;;;5000591;28;20054;-61
2022/04/29 03:57:42;;;;;;;0.00;0.00;;;7.20;99.90;;;;;;5002113;28;20103;-60
2022/04/29 04:00:09;;;;;;;0.00;0.00;;;7.00;99.90;;;;;;5000658;28;20451;-60
2022/04/29 04:02:35;;;;;;;0.00;0.00;;;7.00;99.90;;;;;;5001776;28;20092;-61
2022/04/29 04:05:01;;;;;;;0.00;0.00;;;7.00;99.90;;;;;;5001931;28;20041;-61
2022/04/29 04:07:26;;;;;;;0.00;0.00;;;7.00;99.90;;;;;;5001140;28;20061;-60
2022/04/29 04:09:52;;;;;;;0.00;0.00;;;7.00;99.90;;;;;;5001197;28;20045;-61
2022/04/29 04:12:18;;;;;;;0.00;0.00;;;7.00;99.90;;;;;;5001201;28;20088;-62
2022/04/29 04:14:43;;;;;;;0.00;0.00;;;7.20;99.90;;;;;;5001565;28;20049;-61
2022/04/29 04:17:09;;;;;;;0.00;0.00;;;7.00;99.90;;;;;;5000847;28;20042;-61
2022/04/29 04:19:35;;;;;;;0.00;0.00;;;7.00;99.90;;;;;;5001677;28;20050;-61
2022/04/29 04:22:02;;;;;;;0.00;0.00;;;7.00;99.90;;;;;;5001631;28;20065;-61
2022/04/29 04:24:28;;;;;;;0.00;0.00;;;7.00;99.90;;;;;;5001509;28;20050;-61
2022/04/29 04:26:54;;;;;;;0.00;0.00;;;7.00;99.90;;;;;;5001315;28;20061;-61
2022/04/29 04:29:19;;;;;;;0.00;0.00;;;7.00;99.90;;;;;;5001485;28;20534;-60
2022/04/29 04:31:45;;;;;;;0.00;0.00;;;7.10;99.90;;;;;;5001035;28;20045;-61
2022/04/29 04:36:55;;;;;;;0.00;0.00;;;7.10;99.90;;;;;;5001599;28;20045;-61
2022/04/29 04:39:22;;;;;;;0.00;0.00;;;7.10;99.90;;;;;;5000983;28;20140;-60
2022/04/29 04:41:48;;;;;;;0.00;0.00;;;7.20;99.90;;;;;;5000919;28;20488;-61
2022/04/29 04:44:14;;;;;;;0.20;0.10;;;7.20;99.90;;;;;;5000871;28;20046;-60
2022/04/29 04:46:40;;;;;;;0.00;0.00;;;7.20;99.90;;;;;;5011155;28;20116;-60
2022/04/29 04:49:06;;;;;;;0.00;0.00;;;7.20;99.90;;;;;;5001985;28;20456;-60
2022/04/29 04:51:31;;;;;;;0.00;0.00;;;7.20;99.90;;;;;;5000320;28;20548;-61
2022/04/29 04:53:57;;;;;;;0.00;0.00;;;7.20;99.90;;;;;;5000576;28;20147;-61
2022/04/29 04:56:23;;;;;;;0.00;0.00;;;7.20;99.90;;;;;;5000765;28;20049;-60
2022/04/29 04:58:48;;;;;;;0.00;0.00;;;7.30;99.90;;;;;;5001180;28;20125;-61
2022/04/29 05:01:14;;;;;;;0.00;0.00;;;7.40;99.90;;;;;;4999585;28;20096;-60
2022/04/29 05:03:40;;;;;;;0.00;0.00;;;7.40;99.90;;;;;;5000700;28;20064;-60
2022/04/29 05:06:05;;;;;;;0.00;0.00;;;7.40;99.90;;;;;;5001804;28;20041;-61
2022/04/29 05:08:31;;;;;;;0.00;0.00;;;7.50;99.90;;;;;;5000256;28;20054;-61
2022/04/29 05:10:57;;;;;;;0.00;0.00;;;7.50;99.90;;;;;;5000557;28;20495;-61
2022/04/29 05:13:22;;;;;;;0.00;0.00;;;7.50;99.90;;;;;;5000296;28;20571;-61
2022/04/29 05:15:48;;;;;;;0.00;0.00;;;7.50;99.90;;;;;;5000383;28;20046;-62
2022/04/29 05:18:15;;;;;;;0.00;0.00;;;7.50;99.90;;;;;;4999798;28;20558;-61
2022/04/29 05:20:40;;;;;;;0.00;0.00;;;7.50;99.90;;;;;;5000902;28;20053;-60
2022/04/29 05:23:06;;;;;;;0.00;0.00;;;7.50;99.90;;;;;;5001090;28;20085;-61
2022/04/29 05:25:33;;;;;;;0.00;0.00;;;7.50;99.90;;;;;;4999180;28;20033;-61
2022/04/29 05:27:59;;;;;;;0.00;0.00;;;7.60;99.90;;;;;;4999926;28;20046;-61
2022/04/29 05:30:26;;;;;;;0.00;0.00;;;7.60;99.90;;;;;;4999564;28;20036;-61
2022/04/29 05:32:53;;;;;;;0.00;0.00;;;7.70;99.90;;;;;;4999212;28;20060;-61
2022/04/29 05:35:19;;;;;;;0.00;0.00;;;7.80;99.90;;;;;;4999468;28;20050;-61
2022/04/29 05:37:44;;;;;;;0.00;0.00;;;7.90;99.90;;;;;;5000530;28;20045;-63
2022/04/29 05:42:55;;;;;;;0.00;0.00;;;8.10;99.90;;;;;;4999610;28;20057;-61
2022/04/29 05:45:21;;;;;;;0.00;0.00;;;8.20;99.90;;;;;;5001639;28;20727;-61
2022/04/29 05:47:47;;;;;;;0.00;0.00;;;8.30;99.90;;;;;;5008817;28;20592;-61
2022/04/29 05:50:13;;;;;;;0.00;0.00;;;8.40;99.90;;;;;;5000039;28;20052;-60
2022/04/29 05:52:39;;;;;;;0.00;0.00;;;8.50;99.90;;;;;;4999915;28;20041;-61
2022/04/29 05:55:05;;;;;;;0.00;0.00;;;9.30;99.90;;;;;;5000465;28;20053;-61
2022/04/29 05:57:34;;;;;;;0.00;0.00;;;8.60;99.90;;;;;;4999801;28;20042;-61
2022/04/29 05:59:59;;;;;;;0.00;0.00;;;8.80;99.90;;;;;;4999555;28;20068;-61
2022/04/29 06:02:26;;;;;;;0.00;0.00;;;9.60;99.90;;;;;;4999258;28;20427;-60
2022/04/29 06:04:52;;;;;;;0.00;0.00;;;8.60;99.90;;;;;;5000159;28;20048;-61
2022/04/29 06:07:18;;;;;;;0.00;0.00;;;8.70;99.90;;;;;;4999501;28;20054;-61
2022/04/29 06:09:43;;;;;;;0.00;0.00;;;9.00;99.90;;;;;;4999587;28;20089;-60
2022/04/29 06:12:09;;;;;;;0.00;0.00;;;9.10;99.90;;;;;;5000482;28;20049;-61
2022/04/29 06:14:35;;;;;;;0.00;0.00;;;9.30;99.90;;;;;;5000026;28;20877;-61
2022/04/29 06:17:01;;;;;;;0.00;0.00;;;9.30;99.90;;;;;;5003145;28;20050;-61
2022/04/29 06:19:27;;;;;;;0.00;0.00;;;9.20;99.90;;;;;;5002849;28;20382;-61
2022/04/29 06:21:52;;;;;;;0.00;0.00;;;9.20;99.90;;;;;;5004131;28;20088;-61
2022/04/29 06:24:18;;;;;;;0.00;0.00;;;9.10;99.90;;;;;;5003602;28;20049;-61
2022/04/29 06:26:44;;;;;;;0.00;0.00;;;9.10;99.90;;;;;;5003192;28;20594;-61
2022/04/29 06:29:10;;;;;;;0.00;0.00;;;9.00;99.90;;;;;;5002739;28;20449;-60
2022/04/29 06:31:35;;;;;;;0.00;0.00;;;9.00;99.90;;;;;;5003196;28;20052;-61
2022/04/29 06:34:01;;;;;;;0.00;0.00;;;8.90;99.90;;;;;;5003366;28;20555;-61
2022/04/29 06:36:27;;;;;;;0.00;0.00;;;8.90;99.90;;;;;;5002546;28;20042;-62
2022/04/29 06:38:52;;;;;;;0.00;0.00;;;8.80;99.90;;;;;;5003643;28;20049;-61
2022/04/29 06:41:18;;;;;;;0.00;0.00;;;8.80;99.90;;;;;;5003346;28;20691;-61
2022/04/29 06:43:44;;;;;;;0.00;0.00;;;9.80;99.90;;;;;;5003724;28;20052;-60
2022/04/29 06:46:10;;;;;;;0.00;0.00;;;8.80;99.90;;;;;;5008497;28;20049;-60
2022/04/29 06:48:36;;;;;;;0.00;0.00;;;8.90;99.90;;;;;;5007893;28;20093;-61
2022/04/29 06:51:02;;;;;;;0.00;0.00;;;8.90;99.90;;;;;;5007449;28;20103;-61
2022/04/29 06:53:27;;;;;;;0.00;0.00;;;9.00;99.90;;;;;;5020542;28;20049;-61
2022/04/29 06:55:54;;;;;;;0.00;0.00;;;8.90;99.90;;;;;;5022523;28;20064;-61
2022/04/29 06:58:19;;;;;;;0.00;0.00;;;9.00;99.90;;;;;;5022324;28;20033;-61
2022/04/29 07:00:45;;;;;;;0.00;0.00;;;8.90;99.90;;;;;;5021698;28;20125;-61
2022/04/29 07:03:11;;;;;;;0.00;0.00;;;9.00;99.90;;;;;;5020465;28;20041;-61
2022/04/29 07:05:41;;;;;;;0.00;0.00;;;9.30;99.90;;;;;;5023004;28;20056;-62
2022/04/29 07:08:07;;;;;;;0.00;0.00;;;9.00;99.90;;;;;;5022975;28;20462;-61
2022/04/29 07:10:33;;;;;;;0.00;0.00;;;9.20;99.90;;;;;;5022337;28;20040;-62
2022/04/29 07:13:03;;;;;;;0.00;0.00;;;9.10;99.90;;;;;;5022392;28;20084;-61
2022/04/29 07:15:29;;;;;;;0.00;0.00;;;9.20;99.90;;;;;;5021553;28;20599;-62
2022/04/29 07:17:54;;;;;;;0.00;0.00;;;9.20;99.90;;;;;;5022290;28;20108;-61
2022/04/29 07:20:20;;;;;;;0.00;0.00;;;9.20;99.90;;;;;;5019774;28;20053;-61
2022/04/29 07:22:46;;;;;;;0.00;0.00;;;9.20;99.90;;;;;;5021437;28;20423;-61
2022/04/29 07:25:13;;;;;;;0.00;0.00;;;9.20;99.90;;;;;;5022288;28;20049;-61
2022/04/29 07:27:40;;;;;;;0.00;0.00;;;9.20;99.90;;;;;;5021472;28;20400;-62
2022/04/29 07:30:08;;;;;;;0.00;0.00;;;9.20;99.90;;;;;;5019266;28;20241;-61
2022/04/29 07:32:33;;;;;;;0.00;0.00;;;9.20;99.90;;;;;;5019834;28;20472;-62
2022/04/29 07:43:14;;;;;;;0.00;0.00;;;9.30;99.90;;;;;;5019061;28;20137;-59
2022/04/29 07:45:40;;;;;;;0.00;0.00;;;9.30;99.90;;;;;;4998490;28;20124;-59
2022/04/29 07:48:06;;;;;;;0.00;0.00;;;9.40;99.90;;;;;;5013657;28;20041;-60
2022/04/29 07:50:33;;;;;;;0.00;0.00;;;9.40;99.90;;;;;;5021665;28;20393;-61
2022/04/29 07:52:59;;;;;;;0.00;0.00;;;9.50;99.90;;;;;;5021361;28;20049;-60
2022/04/29 07:55:25;;;;;;;0.00;0.00;;;9.60;99.90;;;;;;5021432;28;20041;-60
2022/04/29 07:57:51;;;;;;;0.00;0.00;;;10.10;99.90;;;;;;5020982;28;20045;-62
2022/04/29 08:00:18;;;;;;;0.00;0.00;;;9.70;99.90;;;;;;5020430;28;20991;-68
2022/04/29 08:02:43;;;;;;;0.00;0.00;;;9.60;99.90;;;;;;5021220;28;20044;-68
2022/04/29 08:05:09;;;;;;;0.00;0.00;;;9.60;99.90;;;;;;5021866;28;20041;-69
2022/04/29 08:07:36;;;;;;;0.00;0.00;;;9.80;99.90;;;;;;5020772;28;20061;-68
2022/04/29 08:10:02;;;;;;;0.00;0.00;;;9.90;99.90;;;;;;5021852;28;20041;-69
2022/04/29 08:12:27;;;;;;;0.00;0.00;;;10.00;99.90;;;;;;5020869;28;20072;-68
2022/04/29 08:14:54;;;;;;;0.00;0.00;;;10.00;99.90;;;;;;5019928;28;20091;-68
2022/04/29 08:17:20;;;;;;;0.00;0.00;;;10.20;99.90;;;;;;5020732;28;20423;-69
2022/04/29 08:19:48;;;;;;;0.00;0.00;;;10.30;99.90;;;;;;5021273;28;20136;-68
2022/04/29 08:22:18;;;;;;;0.00;0.00;;;10.50;99.90;;;;;;5021182;28;20049;-67
2022/04/29 08:24:44;;;;;;;0.00;0.00;;;10.70;99.90;;;;;;5021263;28;20488;-69
2022/04/29 08:27:10;;;;;;;0.00;0.00;;;10.80;99.90;;;;;;5020946;28;20041;-68
2022/04/29 08:29:39;;;;;;;0.00;0.00;;;10.70;99.90;;;;;;5021170;28;20080;-68
2022/04/29 08:32:06;;;;;;;0.00;0.00;;;10.70;99.90;;;;;;5019997;28;20040;-68
2022/04/29 08:34:35;;;;;;;0.00;0.00;;;10.80;99.90;;;;;;5020458;28;20092;-68
2022/04/29 08:37:03;;;;;;;0.00;0.00;;;10.70;99.90;;;;;;5021280;28;20549;-68
2022/04/29 08:39:30;;;;;;;0.00;0.00;;;10.60;99.90;;;;;;5018998;28;20385;-69
2022/04/29 08:41:59;;;;;;;0.00;0.00;;;10.60;99.90;;;;;;5020858;28;20412;-69
2022/04/29 08:44:27;;;;;;;0.00;0.00;;;10.60;99.90;;;;;;5019165;28;20049;-68
2022/04/29 08:46:53;;;;;;;0.00;0.00;;;10.60;99.90;;;;;;5012587;28;20129;-68
2022/04/29 08:49:19;;;;;;;0.00;0.00;;;10.70;99.90;;;;;;4999699;28;20121;-67
2022/04/29 08:51:45;;;;;;;0.00;0.00;;;10.80;99.90;;;;;;5000972;28;20049;-70
2022/04/29 08:58:36;;;;;;;0.00;0.00;;;10.90;99.90;;;;;;5001117;28;20129;-66
2022/04/29 08:59:46;;;;;;;0.00;0.00;;;10.70;99.90;;;;;;5012049;28;20057;-60
2022/04/29 09:02:11;;;;;;;0.00;0.00;;;10.90;99.90;;;;;;5017297;28;20037;-66
2022/04/29 09:04:37;;;;;;;0.00;0.00;;;10.70;99.90;;;;;;5018618;28;20045;-67
2022/04/29 09:07:03;;;;;;;0.00;0.00;;;10.70;99.90;;;;;;5020105;28;20388;-68
2022/04/29 09:09:29;;;;;;;0.00;0.00;;;10.70;99.90;;;;;;5018981;28;20041;-64
2022/04/29 09:12:17;;;;;;;0.00;0.00;;;10.60;99.90;;;;;;5020157;28;20040;-67
2022/04/29 09:14:43;;;;;;;0.00;0.00;;;10.70;99.90;;;;;;5018108;28;20049;-67
2022/04/29 09:17:28;;;;;;;0.00;0.00;;;10.60;99.90;;;;;;5019359;28;20060;-66
2022/04/29 09:19:54;;;;;;;0.00;0.00;;;10.70;99.90;;;;;;5019825;28;20044;-66
2022/04/29 09:22:20;;;;;;;0.00;0.00;;;10.90;99.90;;;;;;5018815;28;20108;-66
2022/04/29 09:25:03;;;;;;;0.00;0.00;;;10.70;99.90;;;;;;5018967;28;20279;-66
2022/04/29 09:27:28;;;;;;;0.00;0.00;;;10.70;99.90;;;;;;5019333;28;20113;-65
2022/04/29 09:29:59;;;;;;;0.00;0.00;;;10.70;99.90;;;;;;5018384;28;20928;-67
2022/04/29 09:32:24;;;;;;;0.20;0.20;;;10.60;99.90;;;;;;5019237;28;20042;-66
2022/04/29 09:34:54;;;;;;;0.00;0.00;;;10.90;99.90;;;;;;5019811;28;20106;-68
2022/04/29 09:37:25;;;;;;;0.00;0.00;;;10.70;99.90;;;;;;5019208;28;20103;-67
2022/04/29 09:40:00;;;;;;;0.00;0.00;;;10.70;99.90;;;;;;5019812;28;20045;-66
2022/04/29 09:42:43;;;;;;;0.00;0.00;;;10.90;99.90;;;;;;5019162;28;20067;-67
2022/04/29 09:45:13;;;;;;;0.00;0.00;;;10.90;99.90;;;;;;5016283;28;20050;-67
2022/04/29 09:47:39;;;;;;;0.00;0.00;;;11.00;99.90;;;;;;5014403;28;20441;-66
2022/04/29 09:50:05;;;;;;;0.00;0.00;;;11.10;99.90;;;;;;5018607;28;20088;-67
2022/04/29 09:52:31;;;;;;;0.00;0.00;;;11.10;99.90;;;;;;5017984;28;20049;-66
2022/04/29 09:55:10;;;;;;;0.00;0.00;;;11.10;99.90;;;;;;5019174;28;20052;-66
2022/04/29 09:57:56;;;;;;;0.00;0.00;;;11.20;99.90;;;;;;5000115;28;20053;-68
2022/04/29 10:00:23;;;;;;;0.00;0.00;;;11.20;99.90;;;;;;4998786;28;20378;-67
2022/04/29 10:02:49;;;;;;;0.00;0.00;;;11.30;99.90;;;;;;4999893;28;20080;-68
2022/04/29 10:05:16;;;;;;;0.00;0.00;;;11.30;99.90;;;;;;4999564;28;20069;-67
2022/04/29 10:07:42;;;;;;;0.00;0.00;;;11.30;99.90;;;;;;4999347;28;20054;-67
2022/04/29 10:10:11;;;;;;;0.00;0.00;;;11.40;99.90;;;;;;5000469;28;20046;-68
2022/04/29 10:12:37;;;;;;;0.00;0.00;;;11.40;99.90;;;;;;4999989;28;20611;-67
2022/04/29 10:15:09;;;;;;;0.00;0.00;;;11.60;99.90;;;;;;4998666;28;20764;-67
2022/04/29 10:23:13;;;;;;;0.00;0.00;;;11.50;99.90;;;;;;4999892;28;20061;-67
2022/04/29 10:25:42;;;;;;;0.00;0.00;;;11.50;99.90;;;;;;4999690;28;20045;-65
2022/04/29 10:28:08;;;;;;;0.00;0.00;;;11.60;99.90;;;;;;5000098;28;20050;-66
2022/04/29 10:30:37;;;;;;;0.00;0.00;;;11.60;99.90;;;;;;4998929;28;20041;-66
2022/04/29 10:33:05;;;;;;;0.00;0.00;;;11.60;99.90;;;;;;4999855;28;20046;-66
2022/04/29 10:35:42;;;;;;;0.00;0.00;;;11.70;99.90;;;;;;4998342;28;20127;-65
2022/04/29 10:38:25;;;;;;;0.00;0.00;;;11.80;99.90;;;;;;5000283;28;20526;-64
2022/04/29 10:41:06;;;;;;;0.00;0.00;;;11.80;99.90;;;;;;4999026;28;20085;-66
2022/04/29 10:43:35;;;;;;;0.00;0.00;;;11.90;99.90;;;;;;4999314;28;20409;-66
2022/04/29 10:46:04;;;;;;;0.00;0.00;;;11.90;99.90;;;;;;5003262;28;20049;-66
2022/04/29 10:48:37;;;;;;;0.00;0.00;;;12.00;99.90;;;;;;5004443;28;20659;-66
2022/04/29 10:51:26;;;;;;;0.00;0.00;;;11.90;99.90;;;;;;4999796;28;20460;-65
2022/04/29 10:53:57;;;;;;;0.00;0.00;;;11.90;99.90;;;;;;4999648;28;20042;-65
2022/04/29 10:56:32;;;;;;;0.00;0.00;;;11.90;99.90;;;;;;4998987;28;20060;-65
2022/04/29 10:59:06;;;;;;;0.00;0.00;;;11.90;99.90;;;;;;4998896;28;20393;-66
2022/04/29 11:01:36;;;;;;;0.00;0.00;;;11.90;99.90;;;;;;4999234;28;20707;-65
2022/04/29 11:04:04;;;;;;;0.00;0.00;;;11.90;99.90;;;;;;5003199;28;20083;-66
2022/04/29 11:06:37;;;;;;;0.00;0.00;;;12.10;99.90;;;;;;5016985;28;20050;-66
2022/04/29 11:09:27;;;;;;;0.00;0.00;;;11.90;99.90;;;;;;5002882;28;20049;-65
2022/04/29 11:11:54;;;;;;;0.00;0.00;;;11.90;99.90;;;;;;5002337;28;20044;-66
2022/04/29 11:14:20;;;;;;;0.00;0.00;;;11.80;99.90;;;;;;5001618;28;20057;-64
2022/04/29 11:16:52;;;;;;;0.00;0.00;;;11.80;99.90;;;;;;5002519;28;20042;-66
2022/04/29 11:19:20;;;;;;;0.00;0.00;;;11.80;99.90;;;;;;5001290;28;20279;-65
2022/04/29 11:24:49;;;;;;;0.00;0.00;;;11.60;99.90;;;;;;5001794;28;20092;-65
2022/04/29 11:27:25;;;;;;;0.00;0.00;;;11.60;99.90;;;;;;5011193;28;20037;-64
2022/04/29 11:29:54;;;;;;;0.00;0.00;;;11.60;99.90;;;;;;5016542;28;20449;-65
2022/04/29 11:32:26;;;;;;;0.00;0.00;;;11.60;99.90;;;;;;5021579;28;20073;-64
2022/04/29 11:35:04;;;;;;;0.00;0.00;;;11.50;99.90;;;;;;5020299;28;20080;-65
2022/04/29 11:37:34;;;;;;;0.00;0.00;;;11.60;99.90;;;;;;5020837;28;20397;-65
2022/04/29 11:40:05;;;;;;;0.00;0.00;;;11.60;99.90;;;;;;5021876;28;20096;-63
2022/04/29 11:42:31;;;;;;;0.00;0.00;;;11.70;99.90;;;;;;5021066;28;20046;-65
2022/04/29 11:45:04;;;;;;;0.05;0.05;;;11.70;99.90;;;;;;5018251;28;20045;-65
2022/04/29 11:47:32;;;;;;;0.00;0.00;;;11.70;99.90;;;;;;5009189;28;20129;-64
2022/04/29 11:49:57;;;;;;;0.00;0.00;;;11.70;99.90;;;;;;5001819;28;20049;-63
2022/04/29 11:52:31;;;;;;;0.00;0.00;;;11.70;99.90;;;;;;5001286;28;20056;-64
2022/04/29 11:55:01;;;;;;;0.00;0.00;;;11.70;99.90;;;;;;5001884;28;20435;-64
2022/04/29 11:57:30;;;;;;;0.00;0.00;;;11.60;99.90;;;;;;5001186;28;20789;-64
2022/04/29 11:59:56;;;;;;;0.00;0.00;;;11.60;99.90;;;;;;5001117;28;20735;-64
2022/04/29 12:02:23;;;;;;;0.00;0.00;;;11.50;99.90;;;;;;5000895;28;20034;-66
2022/04/29 12:05:07;;;;;;;0.00;0.00;;;11.60;99.90;;;;;;5001535;28;20401;-66
2022/04/29 12:07:43;;;;;;;0.00;0.00;;;11.40;99.90;;;;;;5000348;28;20054;-67
2022/04/29 12:10:28;;;;;;;0.00;0.00;;;11.40;99.90;;;;;;5001792;28;20416;-60
2022/04/29 12:13:01;;;;;;;0.00;0.00;;;11.40;99.90;;;;;;5000842;28;20560;-66
2022/04/29 12:15:30;;;;;;;0.00;0.00;;;11.50;99.90;;;;;;4998648;28;20053;-67
2022/04/29 12:17:58;;;;;;;0.00;0.00;;;11.60;99.90;;;;;;5010833;28;20037;-67
2022/04/29 12:20:25;;;;;;;0.20;0.20;;;11.70;99.90;;;;;;5019980;28;20128;-67
2022/04/29 12:22:52;;;;;;;0.00;0.00;;;12.10;99.90;;;;;;5021679;28;20041;-67
2022/04/29 12:25:34;;;;;;;0.00;0.00;;;11.80;99.90;;;;;;5020901;28;20064;-67
2022/04/29 12:28:22;;;;;;;0.00;0.00;;;11.70;99.90;;;;;;5019281;28;20045;-69
2022/04/29 12:36:52;;;;;;;0.00;0.00;;;11.70;99.90;;;;;;5020689;28;20049;-67
2022/04/29 12:39:21;;;;;;;0.00;0.00;;;11.80;99.90;;;;;;5020587;28;20050;-69
2022/04/29 12:42:17;;;;;;;0.00;0.00;;;11.80;99.90;;;;;;5020672;28;20456;-68
2022/04/29 12:45:07;;;;;;;0.00;0.00;;;11.90;99.90;;;;;;5019292;28;20058;-63
2022/04/29 12:47:38;;;;;;;0.00;0.00;;;11.90;99.90;;;;;;5009500;28;20049;-66
2022/04/29 12:50:26;;;;;;;0.00;0.00;;;11.90;99.90;;;;;;5001247;28;20130;-69
2022/04/29 12:53:12;;;;;;;0.00;0.00;;;11.80;99.90;;;;;;5000957;28;20046;-70
2022/04/29 12:55:44;;;;;;;0.00;0.00;;;11.80;99.90;;;;;;5001362;28;20065;-70
2022/04/29 12:58:15;;;;;;;0.00;0.00;;;11.90;99.90;;;;;;5000970;28;20452;-66
2022/04/29 13:00:44;;;;;;;0.00;0.00;;;11.80;99.90;;;;;;5000559;28;20112;-68
2022/04/29 13:03:31;;;;;;;0.00;0.00;;;11.90;99.90;;;;;;5000588;28;20077;-67
2022/04/29 13:06:00;;;;;;;0.03;0.03;;;11.90;99.90;;;;;;5000981;28;20046;-69
2022/04/29 13:08:26;;;;;;;0.00;0.00;;;11.90;99.90;;;;;;5013706;28;20054;-68
2022/04/29 13:10:55;;;;;;;0.00;0.00;;;11.90;99.90;;;;;;5006911;28;20038;-71
2022/04/29 13:13:23;;;;;;;0.00;0.00;;;11.80;99.90;;;;;;5005728;28;20045;-67
2022/04/29 13:15:49;;;;;;;0.00;0.00;;;11.90;99.90;;;;;;5006095;28;20049;-69
2022/04/29 13:18:17;;;;;;;0.17;0.17;;;11.80;99.90;;;;;;5005732;28;20041;-68
2022/04/29 13:20:43;;;;;;;0.00;0.00;;;11.70;99.90;;;;;;5007481;28;20033;-67
2022/04/29 13:23:12;;;;;;;0.00;0.00;;;11.90;99.90;;;;;;5007529;28;20045;-65
2022/04/29 13:25:40;;;;;;;0.00;0.00;;;12.00;99.90;;;;;;5005113;28;20653;-66
2022/04/29 13:28:07;;;;;;;0.00;0.00;;;12.10;99.90;;;;;;5007156;28;20045;-67
2022/04/29 13:30:32;;;;;;;0.00;0.00;;;12.30;99.90;;;;;;5006205;28;20049;-66
2022/04/29 13:32:59;;;;;;;0.00;0.00;;;12.40;99.90;;;;;;5006728;28;20604;-66